sensor_id;sensor_type;location;lat;lon;timestamp;P1;durP1;ratioP1;P2;durP2;ratioP2
71290;SDS011;59073;51.994;4.448;2023-05-15T00:02:06;16.04;;;16.04;;
71290;SDS011;59073;51.994;4.448;2023-05-15T00:04:31;15.05;;;15.05;;
71290;SDS011;59073;51.994;4.448;2023-05-15T00:06:57;14.04;;;14.04;;
71290;SDS011;59073;51.994;4.448;2023-05-15T00:09:22;14.50;;;14.50;;
71290;SDS011;59073;51.994;4.448;2023-05-15T00:11:48;13.58;;;13.58;;
71290;SDS011;59073;51.994;4.448;2023-05-15T00:14:13;13.13;;;13.13;;
71290;SDS011;59073;51.994;4.448;2023-05-15T00:16:39;13.48;;;13.48;;
71290;SDS011;59073;51.994;4.448;2023-05-15T00:19:05;13.10;;;13.10;;
71290;SDS011;59073;51.994;4.448;2023-05-15T00:21:30;12.82;;;12.82;;
71290;SDS011;59073;51.994;4.448;2023-05-15T00:23:56;13.29;;;13.21;;
71290;SDS011;59073;51.994;4.448;2023-05-15T00:26:22;12.87;;;12.86;;
71290;SDS011;59073;51.994;4.448;2023-05-15T00:28:48;12.33;;;12.24;;
71290;SDS011;59073;51.994;4.448;2023-05-15T00:31:14;12.05;;;12.05;;
71290;SDS011;59073;51.994;4.448;2023-05-15T00:33:39;12.41;;;12.41;;
71290;SDS011;59073;51.994;4.448;2023-05-15T00:36:05;13.00;;;13.00;;
71290;SDS011;59073;51.994;4.448;2023-05-15T00:38:30;12.99;;;12.99;;
71290;SDS011;59073;51.994;4.448;2023-05-15T00:40:58;12.46;;;12.46;;
71290;SDS011;59073;51.994;4.448;2023-05-15T00:43:24;12.99;;;12.98;;
71290;SDS011;59073;51.994;4.448;2023-05-15T00:45:51;13.55;;;13.55;;
71290;SDS011;59073;51.994;4.448;2023-05-15T00:48:17;13.73;;;13.73;;
71290;SDS011;59073;51.994;4.448;2023-05-15T00:50:43;14.45;;;14.40;;
71290;SDS011;59073;51.994;4.448;2023-05-15T00:53:09;14.35;;;14.35;;
71290;SDS011;59073;51.994;4.448;2023-05-15T00:55:35;14.21;;;14.21;;
71290;SDS011;59073;51.994;4.448;2023-05-15T00:58:02;14.90;;;14.90;;
71290;SDS011;59073;51.994;4.448;2023-05-15T01:00:28;14.28;;;14.28;;
71290;SDS011;59073;51.994;4.448;2023-05-15T01:02:55;14.04;;;14.04;;
71290;SDS011;59073;51.994;4.448;2023-05-15T01:05:21;14.07;;;14.07;;
71290;SDS011;59073;51.994;4.448;2023-05-15T01:08:00;13.02;;;12.98;;
71290;SDS011;59073;51.994;4.448;2023-05-15T01:10:37;12.66;;;12.66;;
71290;SDS011;59073;51.994;4.448;2023-05-15T01:13:05;12.62;;;12.62;;
71290;SDS011;59073;51.994;4.448;2023-05-15T01:15:33;13.03;;;13.03;;
71290;SDS011;59073;51.994;4.448;2023-05-15T01:17:58;12.11;;;12.11;;
71290;SDS011;59073;51.994;4.448;2023-05-15T01:20:24;12.87;;;12.87;;
71290;SDS011;59073;51.994;4.448;2023-05-15T01:22:58;12.56;;;12.56;;
71290;SDS011;59073;51.994;4.448;2023-05-15T01:28:39;12.66;;;12.66;;
71290;SDS011;59073;51.994;4.448;2023-05-15T01:31:13;11.90;;;11.84;;
71290;SDS011;59073;51.994;4.448;2023-05-15T01:33:43;12.05;;;12.04;;
71290;SDS011;59073;51.994;4.448;2023-05-15T01:36:15;11.44;;;11.44;;
71290;SDS011;59073;51.994;4.448;2023-05-15T01:41:23;10.56;;;10.55;;
71290;SDS011;59073;51.994;4.448;2023-05-15T01:44:00;10.34;;;10.34;;
71290;SDS011;59073;51.994;4.448;2023-05-15T01:46:30;10.08;;;10.08;;
71290;SDS011;59073;51.994;4.448;2023-05-15T01:49:02;9.47;;;9.47;;
71290;SDS011;59073;51.994;4.448;2023-05-15T01:51:29;7.83;;;7.83;;
71290;SDS011;59073;51.994;4.448;2023-05-15T01:53:56;7.65;;;7.65;;
71290;SDS011;59073;51.994;4.448;2023-05-15T01:56:23;5.54;;;5.54;;
71290;SDS011;59073;51.994;4.448;2023-05-15T01:58:51;4.53;;;4.53;;
71290;SDS011;59073;51.994;4.448;2023-05-15T02:01:19;3.67;;;3.67;;
71290;SDS011;59073;51.994;4.448;2023-05-15T02:03:46;3.30;;;3.30;;
71290;SDS011;59073;51.994;4.448;2023-05-15T02:06:12;3.30;;;3.30;;
71290;SDS011;59073;51.994;4.448;2023-05-15T02:08:38;3.70;;;3.70;;
71290;SDS011;59073;51.994;4.448;2023-05-15T02:11:06;4.84;;;4.84;;
71290;SDS011;59073;51.994;4.448;2023-05-15T02:13:33;4.59;;;4.59;;
71290;SDS011;59073;51.994;4.448;2023-05-15T02:15:59;4.48;;;4.48;;
71290;SDS011;59073;51.994;4.448;2023-05-15T02:18:25;4.68;;;4.68;;
71290;SDS011;59073;51.994;4.448;2023-05-15T02:20:52;4.96;;;4.96;;
71290;SDS011;59073;51.994;4.448;2023-05-15T02:23:17;5.17;;;5.17;;
71290;SDS011;59073;51.994;4.448;2023-05-15T02:26:06;5.50;;;5.50;;
71290;SDS011;59073;51.994;4.448;2023-05-15T02:28:37;6.33;;;6.33;;
71290;SDS011;59073;51.994;4.448;2023-05-15T02:31:30;6.28;;;6.28;;
71290;SDS011;59073;51.994;4.448;2023-05-15T02:34:10;6.88;;;6.88;;
71290;SDS011;59073;51.994;4.448;2023-05-15T02:36:46;7.15;;;7.15;;
71290;SDS011;59073;51.994;4.448;2023-05-15T02:39:14;7.45;;;7.45;;
71290;SDS011;59073;51.994;4.448;2023-05-15T02:41:40;8.63;;;8.63;;
71290;SDS011;59073;51.994;4.448;2023-05-15T02:44:08;8.14;;;8.14;;
71290;SDS011;59073;51.994;4.448;2023-05-15T02:46:37;6.62;;;6.62;;
71290;SDS011;59073;51.994;4.448;2023-05-15T02:49:04;6.54;;;6.54;;
71290;SDS011;59073;51.994;4.448;2023-05-15T02:51:30;6.42;;;6.42;;
71290;SDS011;59073;51.994;4.448;2023-05-15T02:53:57;6.45;;;6.45;;
71290;SDS011;59073;51.994;4.448;2023-05-15T02:56:25;7.72;;;7.72;;
71290;SDS011;59073;51.994;4.448;2023-05-15T02:58:50;8.94;;;8.94;;
71290;SDS011;59073;51.994;4.448;2023-05-15T03:01:15;7.92;;;7.92;;
71290;SDS011;59073;51.994;4.448;2023-05-15T03:03:41;8.04;;;8.04;;
71290;SDS011;59073;51.994;4.448;2023-05-15T03:06:06;6.63;;;6.63;;
71290;SDS011;59073;51.994;4.448;2023-05-15T03:08:32;6.06;;;6.06;;
71290;SDS011;59073;51.994;4.448;2023-05-15T03:10:57;5.15;;;5.15;;
71290;SDS011;59073;51.994;4.448;2023-05-15T03:13:23;5.68;;;5.68;;
71290;SDS011;59073;51.994;4.448;2023-05-15T03:15:48;5.35;;;5.35;;
71290;SDS011;59073;51.994;4.448;2023-05-15T03:18:13;5.90;;;5.89;;
71290;SDS011;59073;51.994;4.448;2023-05-15T03:20:39;5.78;;;5.78;;
71290;SDS011;59073;51.994;4.448;2023-05-15T03:23:04;6.07;;;6.07;;
71290;SDS011;59073;51.994;4.448;2023-05-15T03:25:30;5.80;;;5.80;;
71290;SDS011;59073;51.994;4.448;2023-05-15T03:27:55;6.80;;;6.80;;
71290;SDS011;59073;51.994;4.448;2023-05-15T03:30:20;7.41;;;7.41;;
71290;SDS011;59073;51.994;4.448;2023-05-15T03:32:46;8.37;;;8.37;;
71290;SDS011;59073;51.994;4.448;2023-05-15T03:35:11;8.86;;;8.86;;
71290;SDS011;59073;51.994;4.448;2023-05-15T03:37:37;9.79;;;9.79;;
71290;SDS011;59073;51.994;4.448;2023-05-15T03:40:02;9.81;;;9.81;;
71290;SDS011;59073;51.994;4.448;2023-05-15T03:42:28;10.99;;;10.99;;
71290;SDS011;59073;51.994;4.448;2023-05-15T03:44:54;11.72;;;11.72;;
71290;SDS011;59073;51.994;4.448;2023-05-15T03:47:20;13.56;;;13.54;;
71290;SDS011;59073;51.994;4.448;2023-05-15T03:49:46;16.05;;;16.00;;
71290;SDS011;59073;51.994;4.448;2023-05-15T03:52:11;19.86;;;19.86;;
71290;SDS011;59073;51.994;4.448;2023-05-15T03:54:37;20.15;;;20.13;;
71290;SDS011;59073;51.994;4.448;2023-05-15T03:57:03;20.01;;;19.87;;
71290;SDS011;59073;51.994;4.448;2023-05-15T03:59:29;19.05;;;19.03;;
71290;SDS011;59073;51.994;4.448;2023-05-15T04:01:55;20.76;;;20.75;;
71290;SDS011;59073;51.994;4.448;2023-05-15T04:04:20;19.60;;;19.56;;
71290;SDS011;59073;51.994;4.448;2023-05-15T04:06:45;17.42;;;17.41;;
71290;SDS011;59073;51.994;4.448;2023-05-15T04:09:11;19.16;;;19.16;;
71290;SDS011;59073;51.994;4.448;2023-05-15T04:11:36;20.99;;;20.95;;
71290;SDS011;59073;51.994;4.448;2023-05-15T04:14:02;19.22;;;19.18;;
71290;SDS011;59073;51.994;4.448;2023-05-15T04:16:27;17.98;;;17.96;;
71290;SDS011;59073;51.994;4.448;2023-05-15T04:18:53;17.92;;;17.88;;
71290;SDS011;59073;51.994;4.448;2023-05-15T04:21:18;18.33;;;18.30;;
71290;SDS011;59073;51.994;4.448;2023-05-15T04:23:43;17.22;;;17.22;;
71290;SDS011;59073;51.994;4.448;2023-05-15T04:26:09;16.53;;;16.53;;
71290;SDS011;59073;51.994;4.448;2023-05-15T04:28:34;16.09;;;16.09;;
71290;SDS011;59073;51.994;4.448;2023-05-15T04:31:00;14.82;;;14.82;;
71290;SDS011;59073;51.994;4.448;2023-05-15T04:33:25;13.91;;;13.91;;
71290;SDS011;59073;51.994;4.448;2023-05-15T04:35:51;13.82;;;13.82;;
71290;SDS011;59073;51.994;4.448;2023-05-15T04:38:17;14.56;;;14.56;;
71290;SDS011;59073;51.994;4.448;2023-05-15T04:40:43;14.16;;;14.16;;
71290;SDS011;59073;51.994;4.448;2023-05-15T04:43:09;14.35;;;14.34;;
71290;SDS011;59073;51.994;4.448;2023-05-15T04:45:35;14.75;;;14.72;;
71290;SDS011;59073;51.994;4.448;2023-05-15T04:48:00;13.76;;;13.76;;
71290;SDS011;59073;51.994;4.448;2023-05-15T04:50:26;13.65;;;13.65;;
71290;SDS011;59073;51.994;4.448;2023-05-15T04:52:51;13.98;;;13.98;;
71290;SDS011;59073;51.994;4.448;2023-05-15T04:55:17;14.08;;;14.08;;
71290;SDS011;59073;51.994;4.448;2023-05-15T04:57:42;14.90;;;14.90;;
71290;SDS011;59073;51.994;4.448;2023-05-15T05:00:08;15.93;;;15.93;;
71290;SDS011;59073;51.994;4.448;2023-05-15T05:02:39;17.03;;;17.01;;
71290;SDS011;59073;51.994;4.448;2023-05-15T05:05:06;16.78;;;16.67;;
71290;SDS011;59073;51.994;4.448;2023-05-15T05:07:32;16.53;;;16.52;;
71290;SDS011;59073;51.994;4.448;2023-05-15T05:09:58;16.46;;;16.46;;
71290;SDS011;59073;51.994;4.448;2023-05-15T05:12:24;16.68;;;16.68;;
71290;SDS011;59073;51.994;4.448;2023-05-15T05:14:49;17.57;;;17.57;;
71290;SDS011;59073;51.994;4.448;2023-05-15T05:17:15;17.53;;;17.53;;
71290;SDS011;59073;51.994;4.448;2023-05-15T05:19:40;17.36;;;17.36;;
71290;SDS011;59073;51.994;4.448;2023-05-15T05:22:06;17.72;;;17.72;;
71290;SDS011;59073;51.994;4.448;2023-05-15T05:24:32;17.41;;;17.39;;
71290;SDS011;59073;51.994;4.448;2023-05-15T05:27:01;17.90;;;17.90;;
71290;SDS011;59073;51.994;4.448;2023-05-15T05:29:28;16.08;;;16.08;;
71290;SDS011;59073;51.994;4.448;2023-05-15T05:31:54;15.96;;;15.96;;
71290;SDS011;59073;51.994;4.448;2023-05-15T05:34:20;16.49;;;16.49;;
71290;SDS011;59073;51.994;4.448;2023-05-15T05:36:46;16.78;;;16.77;;
71290;SDS011;59073;51.994;4.448;2023-05-15T05:39:12;16.00;;;16.00;;
71290;SDS011;59073;51.994;4.448;2023-05-15T05:41:38;16.20;;;16.20;;
71290;SDS011;59073;51.994;4.448;2023-05-15T05:44:03;16.66;;;16.66;;
71290;SDS011;59073;51.994;4.448;2023-05-15T05:46:29;15.43;;;15.43;;
71290;SDS011;59073;51.994;4.448;2023-05-15T05:48:54;16.17;;;16.17;;
71290;SDS011;59073;51.994;4.448;2023-05-15T05:51:20;17.35;;;17.35;;
71290;SDS011;59073;51.994;4.448;2023-05-15T05:53:45;16.79;;;16.76;;
71290;SDS011;59073;51.994;4.448;2023-05-15T05:56:11;16.35;;;16.31;;
71290;SDS011;59073;51.994;4.448;2023-05-15T05:58:36;16.51;;;16.51;;
71290;SDS011;59073;51.994;4.448;2023-05-15T06:01:02;15.98;;;15.98;;
71290;SDS011;59073;51.994;4.448;2023-05-15T06:03:27;15.37;;;15.37;;
71290;SDS011;59073;51.994;4.448;2023-05-15T06:05:53;15.87;;;15.87;;
71290;SDS011;59073;51.994;4.448;2023-05-15T06:08:18;15.67;;;15.67;;
71290;SDS011;59073;51.994;4.448;2023-05-15T06:10:44;16.11;;;16.10;;
71290;SDS011;59073;51.994;4.448;2023-05-15T06:13:10;15.18;;;15.18;;
71290;SDS011;59073;51.994;4.448;2023-05-15T06:15:36;14.96;;;14.96;;
71290;SDS011;59073;51.994;4.448;2023-05-15T06:18:02;15.51;;;15.51;;
71290;SDS011;59073;51.994;4.448;2023-05-15T06:20:27;14.91;;;14.91;;
71290;SDS011;59073;51.994;4.448;2023-05-15T06:22:53;13.81;;;13.81;;
71290;SDS011;59073;51.994;4.448;2023-05-15T06:25:18;14.43;;;14.43;;
71290;SDS011;59073;51.994;4.448;2023-05-15T06:27:44;13.91;;;13.91;;
71290;SDS011;59073;51.994;4.448;2023-05-15T06:30:09;14.38;;;14.38;;
71290;SDS011;59073;51.994;4.448;2023-05-15T06:32:36;14.40;;;14.40;;
71290;SDS011;59073;51.994;4.448;2023-05-15T06:35:01;15.01;;;15.01;;
71290;SDS011;59073;51.994;4.448;2023-05-15T06:37:27;15.24;;;15.24;;
71290;SDS011;59073;51.994;4.448;2023-05-15T06:39:53;15.85;;;15.85;;
71290;SDS011;59073;51.994;4.448;2023-05-15T06:42:20;15.33;;;15.33;;
71290;SDS011;59073;51.994;4.448;2023-05-15T06:44:46;15.56;;;15.56;;
71290;SDS011;59073;51.994;4.448;2023-05-15T06:47:11;15.80;;;15.80;;
71290;SDS011;59073;51.994;4.448;2023-05-15T06:49:37;14.92;;;14.92;;
71290;SDS011;59073;51.994;4.448;2023-05-15T06:52:02;16.06;;;16.06;;
71290;SDS011;59073;51.994;4.448;2023-05-15T06:54:28;15.53;;;15.52;;
71290;SDS011;59073;51.994;4.448;2023-05-15T06:56:53;15.19;;;15.18;;
71290;SDS011;59073;51.994;4.448;2023-05-15T06:59:19;15.85;;;15.85;;
71290;SDS011;59073;51.994;4.448;2023-05-15T07:01:44;15.65;;;15.65;;
71290;SDS011;59073;51.994;4.448;2023-05-15T07:04:10;16.53;;;16.53;;
71290;SDS011;59073;51.994;4.448;2023-05-15T07:06:36;15.55;;;15.55;;
71290;SDS011;59073;51.994;4.448;2023-05-15T07:09:01;16.29;;;16.29;;
71290;SDS011;59073;51.994;4.448;2023-05-15T07:11:28;15.10;;;15.10;;
71290;SDS011;59073;51.994;4.448;2023-05-15T07:13:54;14.53;;;14.53;;
71290;SDS011;59073;51.994;4.448;2023-05-15T07:16:20;14.16;;;14.16;;
71290;SDS011;59073;51.994;4.448;2023-05-15T07:18:45;14.14;;;14.14;;
71290;SDS011;59073;51.994;4.448;2023-05-15T07:21:10;14.77;;;14.77;;
71290;SDS011;59073;51.994;4.448;2023-05-15T07:23:36;14.60;;;14.60;;
71290;SDS011;59073;51.994;4.448;2023-05-15T07:26:02;14.91;;;14.91;;
71290;SDS011;59073;51.994;4.448;2023-05-15T07:28:27;15.29;;;15.29;;
71290;SDS011;59073;51.994;4.448;2023-05-15T07:30:53;15.89;;;15.89;;
71290;SDS011;59073;51.994;4.448;2023-05-15T07:33:18;16.23;;;16.17;;
71290;SDS011;59073;51.994;4.448;2023-05-15T07:35:44;16.15;;;16.14;;
71290;SDS011;59073;51.994;4.448;2023-05-15T07:38:09;15.51;;;15.49;;
71290;SDS011;59073;51.994;4.448;2023-05-15T07:40:35;17.25;;;17.24;;
71290;SDS011;59073;51.994;4.448;2023-05-15T07:43:01;16.93;;;16.92;;
71290;SDS011;59073;51.994;4.448;2023-05-15T07:45:26;17.70;;;17.70;;
71290;SDS011;59073;51.994;4.448;2023-05-15T07:47:52;17.77;;;17.66;;
71290;SDS011;59073;51.994;4.448;2023-05-15T07:50:18;19.31;;;19.12;;
71290;SDS011;59073;51.994;4.448;2023-05-15T07:52:44;18.43;;;18.38;;
71290;SDS011;59073;51.994;4.448;2023-05-15T07:55:10;18.34;;;18.28;;
71290;SDS011;59073;51.994;4.448;2023-05-15T07:57:36;18.37;;;18.32;;
71290;SDS011;59073;51.994;4.448;2023-05-15T08:00:05;18.53;;;18.52;;
71290;SDS011;59073;51.994;4.448;2023-05-15T08:02:34;19.04;;;18.97;;
71290;SDS011;59073;51.994;4.448;2023-05-15T08:05:00;21.28;;;20.88;;
71290;SDS011;59073;51.994;4.448;2023-05-15T08:07:25;20.75;;;20.44;;
71290;SDS011;59073;51.994;4.448;2023-05-15T08:09:51;19.66;;;19.59;;
71290;SDS011;59073;51.994;4.448;2023-05-15T08:12:17;19.62;;;19.42;;
71290;SDS011;59073;51.994;4.448;2023-05-15T08:14:51;21.24;;;21.00;;
71290;SDS011;59073;51.994;4.448;2023-05-15T08:17:19;21.52;;;21.20;;
71290;SDS011;59073;51.994;4.448;2023-05-15T08:19:45;21.69;;;21.33;;
71290;SDS011;59073;51.994;4.448;2023-05-15T08:22:11;21.62;;;21.33;;
71290;SDS011;59073;51.994;4.448;2023-05-15T08:24:36;22.25;;;21.87;;
71290;SDS011;59073;51.994;4.448;2023-05-15T08:27:03;22.79;;;22.28;;
71290;SDS011;59073;51.994;4.448;2023-05-15T08:29:30;21.88;;;21.66;;
71290;SDS011;59073;51.994;4.448;2023-05-15T08:31:55;22.88;;;22.58;;
71290;SDS011;59073;51.994;4.448;2023-05-15T08:34:21;23.43;;;23.18;;
71290;SDS011;59073;51.994;4.448;2023-05-15T08:36:46;25.04;;;24.74;;
71290;SDS011;59073;51.994;4.448;2023-05-15T08:39:12;27.13;;;26.59;;
71290;SDS011;59073;51.994;4.448;2023-05-15T08:44:15;25.73;;;24.98;;
71290;SDS011;59073;51.994;4.448;2023-05-15T08:46:41;26.65;;;25.85;;
71290;SDS011;59073;51.994;4.448;2023-05-15T08:49:10;25.86;;;24.95;;
71290;SDS011;59073;51.994;4.448;2023-05-15T08:51:43;26.47;;;25.66;;
71290;SDS011;59073;51.994;4.448;2023-05-15T08:54:09;23.93;;;23.50;;
71290;SDS011;59073;51.994;4.448;2023-05-15T08:56:35;23.82;;;23.35;;
71290;SDS011;59073;51.994;4.448;2023-05-15T08:59:02;22.48;;;22.11;;
71290;SDS011;59073;51.994;4.448;2023-05-15T09:01:28;22.91;;;22.41;;
71290;SDS011;59073;51.994;4.448;2023-05-15T09:03:54;22.86;;;22.31;;
71290;SDS011;59073;51.994;4.448;2023-05-15T09:06:19;23.14;;;22.78;;
71290;SDS011;59073;51.994;4.448;2023-05-15T09:08:47;20.40;;;19.99;;
71290;SDS011;59073;51.994;4.448;2023-05-15T09:11:14;20.46;;;20.04;;
71290;SDS011;59073;51.994;4.448;2023-05-15T09:13:40;19.55;;;19.23;;
71290;SDS011;59073;51.994;4.448;2023-05-15T09:16:06;20.97;;;20.41;;
71290;SDS011;59073;51.994;4.448;2023-05-15T09:18:31;19.86;;;19.54;;
71290;SDS011;59073;51.994;4.448;2023-05-15T09:21:20;20.12;;;19.76;;
71290;SDS011;59073;51.994;4.448;2023-05-15T09:23:46;19.51;;;19.09;;
71290;SDS011;59073;51.994;4.448;2023-05-15T09:26:12;19.73;;;19.31;;
71290;SDS011;59073;51.994;4.448;2023-05-15T09:28:37;17.65;;;17.51;;
71290;SDS011;59073;51.994;4.448;2023-05-15T09:31:04;17.68;;;17.49;;
71290;SDS011;59073;51.994;4.448;2023-05-15T09:33:33;18.98;;;18.61;;
71290;SDS011;59073;51.994;4.448;2023-05-15T09:36:01;18.38;;;18.10;;
71290;SDS011;59073;51.994;4.448;2023-05-15T09:38:28;18.53;;;18.25;;
71290;SDS011;59073;51.994;4.448;2023-05-15T09:40:59;16.49;;;16.28;;
71290;SDS011;59073;51.994;4.448;2023-05-15T09:43:32;16.28;;;16.18;;
71290;SDS011;59073;51.994;4.448;2023-05-15T09:45:59;17.24;;;17.05;;
71290;SDS011;59073;51.994;4.448;2023-05-15T09:48:25;17.04;;;16.87;;
71290;SDS011;59073;51.994;4.448;2023-05-15T09:50:50;16.15;;;15.94;;
71290;SDS011;59073;51.994;4.448;2023-05-15T09:53:16;16.36;;;16.28;;
71290;SDS011;59073;51.994;4.448;2023-05-15T09:55:41;15.47;;;15.47;;
71290;SDS011;59073;51.994;4.448;2023-05-15T10:00:35;15.17;;;15.12;;
71290;SDS011;59073;51.994;4.448;2023-05-15T10:03:03;14.57;;;14.39;;
71290;SDS011;59073;51.994;4.448;2023-05-15T10:05:29;15.57;;;15.24;;
71290;SDS011;59073;51.994;4.448;2023-05-15T10:07:56;16.30;;;16.11;;
71290;SDS011;59073;51.994;4.448;2023-05-15T10:10:22;15.83;;;15.71;;
71290;SDS011;59073;51.994;4.448;2023-05-15T10:12:49;15.47;;;15.45;;
71290;SDS011;59073;51.994;4.448;2023-05-15T10:15:20;15.20;;;15.18;;
71290;SDS011;59073;51.994;4.448;2023-05-15T10:17:47;14.33;;;14.33;;
71290;SDS011;59073;51.994;4.448;2023-05-15T10:20:18;14.06;;;14.05;;
71290;SDS011;59073;51.994;4.448;2023-05-15T10:22:46;14.27;;;14.24;;
71290;SDS011;59073;51.994;4.448;2023-05-15T10:25:20;13.83;;;13.80;;
71290;SDS011;59073;51.994;4.448;2023-05-15T10:27:53;14.15;;;14.08;;
71290;SDS011;59073;51.994;4.448;2023-05-15T10:30:19;13.70;;;13.66;;
71290;SDS011;59073;51.994;4.448;2023-05-15T10:32:46;11.63;;;11.57;;
71290;SDS011;59073;51.994;4.448;2023-05-15T10:35:13;9.67;;;9.67;;
71290;SDS011;59073;51.994;4.448;2023-05-15T10:37:39;8.81;;;8.81;;
71290;SDS011;59073;51.994;4.448;2023-05-15T10:40:08;7.65;;;7.64;;
71290;SDS011;59073;51.994;4.448;2023-05-15T10:42:34;6.65;;;6.65;;
71290;SDS011;59073;51.994;4.448;2023-05-15T10:45:01;5.87;;;5.87;;
71290;SDS011;59073;51.994;4.448;2023-05-15T10:47:30;4.69;;;4.69;;
71290;SDS011;59073;51.994;4.448;2023-05-15T10:49:57;3.77;;;3.77;;
71290;SDS011;59073;51.994;4.448;2023-05-15T10:52:23;3.98;;;3.98;;
71290;SDS011;59073;51.994;4.448;2023-05-15T10:54:49;4.00;;;4.00;;
71290;SDS011;59073;51.994;4.448;2023-05-15T10:57:17;3.68;;;3.68;;
71290;SDS011;59073;51.994;4.448;2023-05-15T10:59:45;3.67;;;3.67;;
71290;SDS011;59073;51.994;4.448;2023-05-15T11:02:20;3.55;;;3.55;;
71290;SDS011;59073;51.994;4.448;2023-05-15T11:04:57;3.75;;;3.75;;
71290;SDS011;59073;51.994;4.448;2023-05-15T11:07:24;3.99;;;3.99;;
71290;SDS011;59073;51.994;4.448;2023-05-15T11:09:50;4.59;;;4.59;;
71290;SDS011;59073;51.994;4.448;2023-05-15T11:12:16;5.05;;;5.05;;
71290;SDS011;59073;51.994;4.448;2023-05-15T11:14:42;5.94;;;5.93;;
71290;SDS011;59073;51.994;4.448;2023-05-15T11:17:30;6.19;;;6.19;;
71290;SDS011;59073;51.994;4.448;2023-05-15T11:19:58;5.95;;;5.95;;
71290;SDS011;59073;51.994;4.448;2023-05-15T11:25:03;5.55;;;5.55;;
71290;SDS011;59073;51.994;4.448;2023-05-15T11:27:40;4.50;;;4.49;;
71290;SDS011;59073;51.994;4.448;2023-05-15T11:32:47;3.63;;;3.63;;
71290;SDS011;59073;51.994;4.448;2023-05-15T11:35:26;3.50;;;3.49;;
71290;SDS011;59073;51.994;4.448;2023-05-15T11:37:58;3.15;;;3.12;;
71290;SDS011;59073;51.994;4.448;2023-05-15T11:40:28;3.39;;;3.34;;
71290;SDS011;59073;51.994;4.448;2023-05-15T11:43:06;3.36;;;3.35;;
71290;SDS011;59073;51.994;4.448;2023-05-15T11:45:43;3.79;;;3.70;;
71290;SDS011;59073;51.994;4.448;2023-05-15T11:48:12;4.01;;;3.88;;
71290;SDS011;59073;51.994;4.448;2023-05-15T11:50:40;4.20;;;3.99;;
71290;SDS011;59073;51.994;4.448;2023-05-15T11:53:08;4.19;;;4.01;;
71290;SDS011;59073;51.994;4.448;2023-05-15T11:55:35;4.25;;;4.13;;
71290;SDS011;59073;51.994;4.448;2023-05-15T11:58:02;4.24;;;4.15;;
71290;SDS011;59073;51.994;4.448;2023-05-15T12:00:28;4.27;;;4.20;;
71290;SDS011;59073;51.994;4.448;2023-05-15T12:02:54;3.56;;;3.48;;
71290;SDS011;59073;51.994;4.448;2023-05-15T12:05:20;3.54;;;3.44;;
71290;SDS011;59073;51.994;4.448;2023-05-15T12:07:46;3.25;;;3.12;;
71290;SDS011;59073;51.994;4.448;2023-05-15T12:10:12;3.21;;;3.06;;
71290;SDS011;59073;51.994;4.448;2023-05-15T12:12:39;2.96;;;2.80;;
71290;SDS011;59073;51.994;4.448;2023-05-15T12:15:09;2.79;;;2.65;;
71290;SDS011;59073;51.994;4.448;2023-05-15T12:17:35;2.90;;;2.77;;
71290;SDS011;59073;51.994;4.448;2023-05-15T12:20:02;3.24;;;3.02;;
71290;SDS011;59073;51.994;4.448;2023-05-15T12:22:34;3.16;;;2.85;;
71290;SDS011;59073;51.994;4.448;2023-05-15T12:25:00;3.24;;;2.96;;
71290;SDS011;59073;51.994;4.448;2023-05-15T12:27:26;3.40;;;3.07;;
71290;SDS011;59073;51.994;4.448;2023-05-15T12:29:52;3.17;;;2.91;;
71290;SDS011;59073;51.994;4.448;2023-05-15T12:32:18;3.23;;;2.94;;
71290;SDS011;59073;51.994;4.448;2023-05-15T12:34:45;3.67;;;3.32;;
71290;SDS011;59073;51.994;4.448;2023-05-15T12:37:11;3.69;;;3.34;;
71290;SDS011;59073;51.994;4.448;2023-05-15T12:42:16;3.54;;;3.29;;
71290;SDS011;59073;51.994;4.448;2023-05-15T12:44:41;3.45;;;3.21;;
71290;SDS011;59073;51.994;4.448;2023-05-15T12:47:07;3.34;;;3.14;;
71290;SDS011;59073;51.994;4.448;2023-05-15T12:49:36;3.33;;;3.10;;
71290;SDS011;59073;51.994;4.448;2023-05-15T12:52:08;3.31;;;3.10;;
71290;SDS011;59073;51.994;4.448;2023-05-15T12:54:38;3.88;;;3.62;;
71290;SDS011;59073;51.994;4.448;2023-05-15T12:57:05;3.73;;;3.44;;
71290;SDS011;59073;51.994;4.448;2023-05-15T12:59:32;3.40;;;3.20;;
71290;SDS011;59073;51.994;4.448;2023-05-15T13:01:57;3.39;;;3.23;;
71290;SDS011;59073;51.994;4.448;2023-05-15T13:04:23;2.86;;;2.78;;
71290;SDS011;59073;51.994;4.448;2023-05-15T13:06:48;2.91;;;2.89;;
71290;SDS011;59073;51.994;4.448;2023-05-15T13:09:19;2.81;;;2.78;;
71290;SDS011;59073;51.994;4.448;2023-05-15T13:11:46;2.66;;;2.66;;
71290;SDS011;59073;51.994;4.448;2023-05-15T13:14:12;2.79;;;2.78;;
71290;SDS011;59073;51.994;4.448;2023-05-15T13:16:44;2.55;;;2.51;;
71290;SDS011;59073;51.994;4.448;2023-05-15T13:19:11;2.74;;;2.70;;
71290;SDS011;59073;51.994;4.448;2023-05-15T13:21:37;2.42;;;2.42;;
71290;SDS011;59073;51.994;4.448;2023-05-15T13:24:05;2.54;;;2.54;;
71290;SDS011;59073;51.994;4.448;2023-05-15T13:26:33;2.17;;;2.17;;
71290;SDS011;59073;51.994;4.448;2023-05-15T13:28:59;2.13;;;2.13;;
71290;SDS011;59073;51.994;4.448;2023-05-15T13:31:25;2.08;;;2.08;;
71290;SDS011;59073;51.994;4.448;2023-05-15T13:33:51;2.28;;;2.28;;
71290;SDS011;59073;51.994;4.448;2023-05-15T13:36:16;2.39;;;2.39;;
71290;SDS011;59073;51.994;4.448;2023-05-15T13:38:42;2.53;;;2.53;;
71290;SDS011;59073;51.994;4.448;2023-05-15T13:41:07;2.63;;;2.63;;
71290;SDS011;59073;51.994;4.448;2023-05-15T13:43:33;2.72;;;2.72;;
71290;SDS011;59073;51.994;4.448;2023-05-15T13:45:58;2.79;;;2.79;;
71290;SDS011;59073;51.994;4.448;2023-05-15T13:48:24;2.33;;;2.33;;
71290;SDS011;59073;51.994;4.448;2023-05-15T13:50:49;2.17;;;2.17;;
71290;SDS011;59073;51.994;4.448;2023-05-15T13:53:15;2.15;;;2.15;;
71290;SDS011;59073;51.994;4.448;2023-05-15T13:55:43;1.91;;;1.91;;
71290;SDS011;59073;51.994;4.448;2023-05-15T13:58:10;2.11;;;2.11;;
71290;SDS011;59073;51.994;4.448;2023-05-15T14:00:36;2.09;;;2.08;;
71290;SDS011;59073;51.994;4.448;2023-05-15T14:03:02;2.37;;;2.37;;
71290;SDS011;59073;51.994;4.448;2023-05-15T14:05:28;2.27;;;2.27;;
71290;SDS011;59073;51.994;4.448;2023-05-15T14:07:54;1.92;;;1.92;;
71290;SDS011;59073;51.994;4.448;2023-05-15T14:10:21;2.06;;;2.06;;
71290;SDS011;59073;51.994;4.448;2023-05-15T14:12:48;2.10;;;2.10;;
71290;SDS011;59073;51.994;4.448;2023-05-15T14:15:14;2.11;;;2.09;;
71290;SDS011;59073;51.994;4.448;2023-05-15T14:17:39;2.55;;;2.53;;
71290;SDS011;59073;51.994;4.448;2023-05-15T14:20:06;2.47;;;2.44;;
71290;SDS011;59073;51.994;4.448;2023-05-15T14:22:34;2.46;;;2.43;;
71290;SDS011;59073;51.994;4.448;2023-05-15T14:25:01;2.65;;;2.60;;
71290;SDS011;59073;51.994;4.448;2023-05-15T14:27:27;1.94;;;1.93;;
71290;SDS011;59073;51.994;4.448;2023-05-15T14:29:53;2.44;;;2.42;;
71290;SDS011;59073;51.994;4.448;2023-05-15T14:32:20;2.13;;;2.09;;
71290;SDS011;59073;51.994;4.448;2023-05-15T14:34:46;2.25;;;2.21;;
71290;SDS011;59073;51.994;4.448;2023-05-15T14:37:12;2.30;;;2.24;;
71290;SDS011;59073;51.994;4.448;2023-05-15T14:39:37;2.09;;;2.01;;
71290;SDS011;59073;51.994;4.448;2023-05-15T14:42:03;2.48;;;2.35;;
71290;SDS011;59073;51.994;4.448;2023-05-15T14:44:28;2.50;;;2.36;;
71290;SDS011;59073;51.994;4.448;2023-05-15T14:47:07;2.33;;;2.20;;
71290;SDS011;59073;51.994;4.448;2023-05-15T14:49:35;2.09;;;2.01;;
71290;SDS011;59073;51.994;4.448;2023-05-15T14:52:01;2.35;;;2.22;;